createdAt,value
2019-03-12T00:02:15.136Z,2.53
2019-03-12T00:04:45.249Z,2.33
2019-03-12T00:07:15.477Z,2.20
2019-03-12T00:09:45.597Z,2.37
2019-03-12T00:12:15.764Z,2.63
2019-03-12T00:14:45.816Z,2.47
2019-03-12T00:17:15.839Z,2.40
2019-03-12T00:19:45.851Z,2.47
2019-03-12T00:22:15.931Z,2.23
2019-03-12T00:24:45.943Z,2.20
2019-03-12T00:27:16.020Z,2.10
2019-03-12T00:29:46.038Z,2.27
2019-03-12T00:32:16.032Z,2.40
2019-03-12T00:34:46.039Z,2.27
2019-03-12T00:37:16.039Z,2.50
2019-03-12T00:39:46.095Z,2.27
2019-03-12T00:42:16.143Z,2.43
2019-03-12T00:44:46.152Z,2.40
2019-03-12T00:47:16.439Z,2.40
2019-03-12T00:49:46.455Z,2.50
2019-03-12T00:52:16.479Z,2.50
2019-03-12T00:54:46.495Z,2.27
2019-03-12T00:57:16.607Z,2.90
2019-03-12T00:59:48.451Z,2.50
2019-03-12T01:02:19.536Z,2.20
2019-03-12T01:04:50.023Z,2.60
2019-03-12T01:07:20.059Z,2.70
2019-03-12T01:09:50.059Z,3.00
2019-03-12T01:12:20.067Z,2.50
2019-03-12T01:14:50.501Z,2.60
2019-03-12T01:17:20.551Z,2.20
2019-03-12T01:19:50.564Z,2.10
2019-03-12T01:22:20.686Z,3.03
2019-03-12T01:24:50.880Z,3.13
2019-03-12T01:27:20.928Z,2.67
2019-03-12T01:29:52.260Z,2.33
2019-03-12T01:32:22.367Z,2.30
2019-03-12T01:34:52.388Z,2.57
2019-03-12T01:37:22.383Z,2.63
2019-03-12T01:39:52.403Z,3.10
2019-03-12T01:42:22.414Z,2.97
2019-03-12T01:44:52.515Z,2.97
2019-03-12T01:47:22.575Z,3.50
2019-03-12T01:49:52.579Z,2.73
2019-03-12T01:52:22.702Z,3.03
2019-03-12T01:54:52.860Z,3.00
2019-03-12T01:57:22.860Z,3.93
2019-03-12T01:59:52.953Z,2.90
2019-03-12T02:02:22.987Z,3.03
2019-03-12T02:04:53.289Z,2.90
2019-03-12T02:07:23.328Z,2.73
2019-03-12T02:09:53.351Z,2.97
2019-03-12T02:12:23.353Z,2.90
2019-03-12T02:14:53.524Z,2.80
2019-03-12T02:17:23.616Z,3.03
2019-03-12T02:19:53.648Z,2.83
2019-03-12T02:22:23.732Z,3.13
2019-03-12T02:24:53.968Z,3.00
2019-03-12T02:27:24.098Z,3.20
2019-03-12T02:29:54.101Z,3.40
2019-03-12T02:32:24.120Z,3.40
2019-03-12T02:34:54.334Z,3.00
2019-03-12T02:37:24.339Z,3.43
2019-03-12T02:39:54.392Z,3.70
2019-03-12T02:42:24.404Z,3.30
2019-03-12T02:44:55.587Z,3.17
2019-03-12T02:47:25.600Z,3.23
2019-03-12T02:49:55.652Z,3.30
2019-03-12T02:52:25.705Z,3.57
2019-03-12T02:54:55.745Z,3.47
2019-03-12T02:57:25.753Z,3.03
2019-03-12T02:59:55.857Z,3.50
2019-03-12T03:02:25.967Z,3.30
2019-03-12T03:04:56.028Z,3.70
2019-03-12T03:07:43.789Z,3.80
2019-03-12T03:10:15.023Z,3.60
2019-03-12T03:12:45.094Z,3.47
2019-03-12T03:15:19.895Z,3.10
2019-03-12T03:17:50.044Z,3.05
2019-03-12T03:20:20.437Z,2.73
2019-03-12T03:22:50.452Z,2.97
2019-03-12T03:25:20.467Z,3.00
2019-03-12T03:27:50.516Z,3.47
2019-03-12T03:30:22.167Z,3.30
2019-03-12T03:32:52.272Z,3.13
2019-03-12T03:35:22.397Z,3.07
2019-03-12T03:37:52.531Z,3.40
2019-03-12T03:40:22.633Z,3.53
2019-03-12T03:42:52.743Z,3.27
2019-03-12T03:45:22.729Z,3.50
2019-03-12T03:47:52.736Z,2.93
2019-03-12T03:50:22.752Z,3.70
2019-03-12T03:52:52.844Z,3.00
2019-03-12T03:55:23.850Z,3.67
2019-03-12T03:57:53.912Z,3.40
2019-03-12T04:00:24.046Z,2.93
2019-03-12T04:02:54.167Z,3.03
2019-03-12T04:05:24.244Z,3.73
2019-03-12T04:07:54.243Z,3.33
2019-03-12T04:10:24.273Z,2.80
2019-03-12T04:12:54.300Z,2.97
2019-03-12T04:15:24.401Z,2.87
2019-03-12T04:17:54.431Z,3.30
2019-03-12T04:20:24.424Z,2.60
2019-03-12T04:22:54.443Z,3.13
2019-03-12T04:25:24.513Z,2.50
2019-03-12T04:27:54.555Z,2.80
2019-03-12T04:30:24.555Z,2.60
2019-03-12T04:32:54.571Z,3.07
2019-03-12T04:35:24.643Z,3.30
2019-03-12T04:37:54.696Z,2.80
2019-03-12T04:40:24.879Z,3.00
2019-03-12T04:42:54.907Z,3.40
2019-03-12T04:45:24.933Z,3.30
2019-03-12T04:47:54.942Z,3.23
2019-03-12T04:50:24.957Z,3.13
2019-03-12T04:52:54.963Z,3.20
2019-03-12T04:55:24.962Z,3.30
2019-03-12T04:57:54.989Z,2.87
2019-03-12T05:00:24.999Z,3.43
2019-03-12T05:02:55.064Z,3.33
2019-03-12T05:05:25.066Z,2.73
2019-03-12T05:07:55.096Z,2.77
2019-03-12T05:10:25.097Z,2.70
2019-03-12T05:12:55.137Z,2.80
2019-03-12T05:15:25.236Z,3.27
2019-03-12T05:17:55.268Z,2.90
2019-03-12T05:20:25.382Z,3.40
2019-03-12T05:22:55.409Z,4.03
2019-03-12T05:25:25.503Z,3.60
2019-03-12T05:27:55.548Z,3.07
2019-03-12T05:30:25.640Z,2.87
2019-03-12T05:32:55.652Z,2.83
2019-03-12T05:35:25.663Z,2.80
2019-03-12T05:37:55.691Z,2.17
2019-03-12T05:40:25.699Z,2.33
2019-03-12T05:42:55.744Z,2.43
2019-03-12T05:45:25.739Z,2.73
2019-03-12T05:47:55.777Z,2.53
2019-03-12T05:50:25.781Z,2.80
2019-03-12T05:53:13.527Z,2.80
2019-03-12T05:55:43.537Z,2.60
2019-03-12T05:58:13.544Z,2.60
2019-03-12T06:00:43.644Z,2.60
2019-03-12T06:03:13.664Z,2.77
2019-03-12T06:05:43.667Z,3.00
2019-03-12T06:08:13.744Z,3.00
2019-03-12T06:10:43.843Z,2.73
2019-03-12T06:13:13.860Z,3.27
2019-03-12T06:15:43.968Z,2.77
2019-03-12T06:18:14.040Z,2.73
2019-03-12T06:20:44.111Z,2.47
2019-03-12T06:23:15.405Z,2.70
2019-03-12T06:25:45.579Z,2.70
2019-03-12T06:28:15.591Z,2.70
2019-03-12T06:30:56.984Z,2.27
2019-03-12T06:33:34.799Z,2.67
2019-03-12T06:36:18.363Z,3.33
2019-03-12T06:38:56.788Z,2.97
2019-03-12T06:41:41.844Z,3.43
2019-03-12T06:44:37.277Z,5.12
2019-03-12T06:47:21.045Z,5.12
2019-03-12T06:50:28.559Z,8.63
2019-03-12T06:53:10.403Z,5.03
2019-03-12T06:56:02.490Z,3.03
2019-03-12T06:58:41.824Z,2.93
2019-03-12T07:01:30.001Z,2.80
2019-03-12T07:04:22.119Z,3.23
2019-03-12T07:07:11.530Z,3.40
2019-03-12T07:10:09.567Z,2.77
2019-03-12T07:13:07.588Z,3.40
2019-03-12T07:15:46.391Z,2.83
2019-03-12T07:18:22.725Z,3.27
2019-03-12T07:21:10.789Z,6.50
2019-03-12T07:23:54.449Z,6.50
2019-03-12T07:26:40.536Z,5.20
2019-03-12T07:29:38.903Z,3.80
2019-03-12T07:32:24.697Z,3.20
2019-03-12T07:35:16.630Z,2.93
2019-03-12T07:38:01.011Z,2.60
2019-03-12T07:40:38.107Z,2.50
2019-03-12T07:43:30.925Z,2.50
2019-03-12T07:46:20.080Z,2.70
2019-03-12T07:49:07.900Z,2.23
2019-03-12T07:51:57.002Z,2.43
2019-03-12T07:54:58.568Z,2.40
2019-03-12T07:57:36.795Z,2.60
2019-03-12T08:00:13.151Z,2.10
2019-03-12T08:02:57.573Z,2.67
2019-03-12T08:05:43.628Z,2.50
2019-03-12T08:08:35.580Z,2.43
2019-03-12T08:11:24.675Z,3.07
2019-03-12T08:14:31.965Z,2.30
2019-03-12T08:17:14.721Z,2.20
2019-03-12T08:20:02.299Z,2.40
2019-03-12T08:22:40.461Z,2.17
2019-03-12T08:25:28.796Z,2.20
2019-03-12T08:28:11.776Z,2.50
2019-03-12T08:31:00.099Z,2.23
2019-03-12T08:33:50.919Z,2.37
2019-03-12T08:36:39.683Z,2.20
2019-03-12T08:39:17.898Z,2.37
2019-03-12T08:42:05.579Z,2.30
2019-03-12T08:44:59.004Z,2.10
2019-03-12T08:47:48.273Z,1.90
2019-03-12T08:50:24.309Z,2.40
2019-03-12T08:53:06.678Z,2.23
2019-03-12T08:56:08.214Z,2.07
2019-03-12T08:58:57.296Z,2.10
2019-03-12T09:01:34.841Z,2.30
2019-03-12T09:04:21.447Z,1.90
2019-03-12T09:07:13.337Z,2.20
2019-03-12T09:09:49.623Z,2.20
2019-03-12T09:12:31.052Z,2.33
2019-03-12T09:15:26.040Z,2.10
2019-03-12T09:18:27.359Z,1.80
2019-03-12T09:21:09.144Z,1.97
2019-03-12T09:23:51.750Z,2.23
2019-03-12T09:26:48.645Z,1.90
2019-03-12T09:29:34.848Z,1.95
2019-03-12T09:32:18.567Z,1.73
2019-03-12T09:35:07.640Z,1.97
2019-03-12T09:37:43.883Z,2.00
2019-03-12T09:40:33.742Z,2.40
2019-03-12T09:43:26.319Z,1.87
2019-03-12T09:46:12.737Z,1.70
2019-03-12T09:49:01.040Z,1.60
2019-03-12T09:51:36.441Z,1.67
2019-03-12T09:54:13.895Z,1.97
2019-03-12T09:56:53.592Z,2.22
2019-03-12T09:59:42.219Z,1.90
2019-03-12T10:02:26.860Z,1.80
2019-03-12T10:05:12.837Z,1.70
2019-03-12T10:08:01.963Z,1.80
2019-03-12T10:10:54.688Z,1.57
2019-03-12T10:13:32.257Z,1.60
2019-03-12T10:16:30.156Z,1.60
2019-03-12T10:19:25.033Z,1.30
2019-03-12T10:22:04.501Z,1.98
2019-03-12T10:24:49.839Z,1.40
2019-03-12T10:27:36.503Z,1.45
2019-03-12T10:30:19.451Z,1.45
2019-03-12T10:33:01.676Z,1.45
2019-03-12T10:35:39.259Z,1.40
2019-03-12T10:39:08.158Z,1.30
2019-03-12T10:41:49.968Z,1.30
2019-03-12T10:44:27.967Z,1.00
2019-03-12T10:47:04.116Z,1.12
2019-03-12T10:49:37.663Z,1.30
2019-03-12T10:52:06.963Z,1.10
2019-03-12T10:54:37.608Z,1.25
2019-03-12T10:57:08.219Z,1.27
2019-03-12T10:59:38.963Z,1.00
2019-03-12T11:02:09.519Z,1.10
2019-03-12T11:04:40.145Z,1.42
2019-03-12T11:07:16.471Z,0.93
2019-03-12T11:09:43.046Z,1.02
2019-03-12T11:12:13.780Z,1.00
2019-03-12T11:14:44.355Z,1.17
2019-03-12T11:17:15.223Z,1.22
2019-03-12T11:19:49.772Z,1.32
2019-03-12T11:22:20.427Z,1.30
2019-03-12T11:24:51.026Z,1.00
2019-03-12T11:27:21.604Z,0.82
2019-03-12T11:29:52.182Z,1.00
2019-03-12T11:32:22.739Z,0.93
2019-03-12T11:34:53.348Z,0.90
2019-03-12T11:37:23.965Z,0.98
2019-03-12T11:39:54.627Z,0.88
2019-03-12T11:42:25.244Z,0.80
2019-03-12T11:44:56.151Z,1.02
2019-03-12T11:47:27.000Z,1.00
2019-03-12T11:49:57.656Z,1.10
2019-03-12T11:52:28.240Z,1.00
2019-03-12T11:54:58.815Z,0.70
2019-03-12T11:57:29.377Z,1.27
2019-03-12T11:59:59.968Z,0.80
2019-03-12T12:02:30.535Z,0.82
2019-03-12T12:05:01.141Z,0.70
2019-03-12T12:07:32.389Z,1.00
2019-03-12T12:10:03.428Z,0.70
2019-03-12T12:12:35.056Z,0.80
2019-03-12T12:15:06.015Z,0.62
2019-03-12T12:17:36.628Z,0.65
2019-03-12T12:20:08.043Z,0.70
2019-03-12T12:22:38.736Z,1.00
2019-03-12T12:25:10.523Z,0.60
2019-03-12T12:27:41.203Z,0.62
2019-03-12T12:30:13.904Z,0.70
2019-03-12T12:32:44.512Z,0.50
2019-03-12T12:35:15.495Z,0.45
2019-03-12T12:37:46.099Z,0.55
2019-03-12T12:40:16.706Z,0.55
2019-03-12T12:42:47.364Z,0.70
2019-03-12T12:45:18.864Z,0.70
2019-03-12T12:47:49.554Z,0.60
2019-03-12T12:50:20.204Z,0.30
2019-03-12T12:52:50.905Z,0.42
2019-03-12T12:55:21.622Z,0.42
2019-03-12T12:57:52.346Z,0.40
2019-03-12T13:00:22.997Z,0.50
2019-03-12T13:02:53.651Z,0.50
2019-03-12T13:05:24.303Z,0.53
2019-03-12T13:07:54.884Z,0.50
2019-03-12T13:10:25.596Z,0.75
2019-03-12T13:12:56.270Z,0.70
2019-03-12T13:15:26.933Z,0.65
2019-03-12T13:17:57.559Z,0.50
2019-03-12T13:20:28.141Z,0.35
2019-03-12T13:22:59.738Z,0.53
2019-03-12T13:25:30.320Z,0.30
2019-03-12T13:28:00.994Z,0.42
2019-03-12T13:30:31.802Z,0.40
2019-03-12T13:33:02.543Z,0.23
2019-03-12T13:35:33.210Z,0.40
2019-03-12T13:38:03.922Z,0.42
2019-03-12T13:40:34.630Z,0.47
2019-03-12T13:43:05.330Z,0.35
2019-03-12T13:45:36.473Z,0.40
2019-03-12T13:48:07.086Z,0.47
2019-03-12T13:50:37.690Z,0.70
2019-03-12T13:53:08.437Z,0.57
2019-03-12T13:55:42.712Z,0.30
2019-03-12T13:58:13.258Z,0.30
2019-03-12T14:00:43.932Z,0.40
2019-03-12T14:03:14.554Z,0.50
2019-03-12T14:05:45.271Z,0.25
2019-03-12T14:08:15.913Z,0.47
2019-03-12T14:10:47.589Z,0.50
2019-03-12T14:13:18.191Z,0.57
2019-03-12T14:15:49.413Z,0.90
2019-03-12T14:18:20.070Z,0.55
2019-03-12T14:20:56.896Z,0.50
2019-03-12T14:23:33.520Z,0.75
2019-03-12T14:26:04.156Z,0.40
2019-03-12T14:28:34.735Z,0.42
2019-03-12T14:31:05.625Z,0.30
2019-03-12T14:33:36.257Z,0.40
2019-03-12T14:36:06.924Z,0.30
2019-03-12T14:38:37.533Z,0.50
2019-03-12T14:41:08.149Z,0.30
2019-03-12T14:43:38.796Z,0.40
2019-03-12T14:46:09.430Z,2.95
2019-03-12T14:49:00.608Z,7.12
2019-03-12T14:51:40.924Z,1.35
2019-03-12T14:54:11.587Z,0.72
2019-03-12T14:56:42.281Z,0.60
2019-03-12T14:59:13.497Z,0.40
2019-03-12T15:01:44.063Z,0.53
2019-03-12T15:04:15.240Z,0.40
2019-03-12T15:06:46.113Z,0.30
2019-03-12T15:09:16.951Z,0.40
2019-03-12T15:11:47.991Z,0.40
2019-03-12T15:14:18.614Z,0.50
2019-03-12T15:16:49.255Z,0.60
2019-03-12T15:19:19.880Z,0.60
2019-03-12T15:21:50.508Z,0.60
2019-03-12T15:24:21.154Z,0.35
2019-03-12T15:26:51.828Z,0.50
2019-03-12T15:29:22.439Z,0.60
2019-03-12T15:32:03.559Z,0.37
2019-03-12T15:34:25.511Z,0.60
2019-03-12T15:36:56.205Z,0.57
2019-03-12T15:39:27.343Z,0.50
2019-03-12T15:41:58.033Z,0.37
2019-03-12T15:44:28.603Z,0.50
2019-03-12T15:46:59.219Z,0.60
2019-03-12T15:49:29.795Z,0.72
2019-03-12T15:52:00.451Z,0.40
2019-03-12T15:54:31.019Z,0.40
2019-03-12T15:57:01.706Z,0.50
2019-03-12T15:59:32.432Z,0.70
2019-03-12T16:02:03.007Z,0.40
2019-03-12T16:04:33.613Z,0.40
2019-03-12T16:07:04.212Z,0.30
2019-03-12T16:09:34.863Z,1.30
2019-03-12T16:12:05.507Z,1.70
2019-03-12T16:14:36.311Z,0.60
2019-03-12T16:17:06.983Z,0.53
2019-03-12T16:19:37.614Z,0.50
2019-03-12T16:22:08.343Z,0.50
2019-03-12T16:24:38.947Z,0.53
2019-03-12T16:27:10.002Z,0.60
2019-03-12T16:29:40.639Z,1.20
2019-03-12T16:32:11.276Z,1.00
2019-03-12T16:34:41.914Z,0.88
2019-03-12T16:37:12.743Z,1.40
2019-03-12T16:39:43.384Z,0.60
2019-03-12T16:42:14.125Z,0.80
2019-03-12T16:44:44.731Z,1.10
2019-03-12T16:47:15.377Z,1.37
2019-03-12T16:49:46.003Z,2.72
2019-03-12T16:52:16.647Z,2.08
2019-03-12T16:54:47.262Z,2.10
2019-03-12T16:57:17.915Z,2.05
2019-03-12T16:59:49.548Z,1.70
2019-03-12T17:02:20.297Z,2.87
2019-03-12T17:04:51.020Z,2.12
2019-03-12T17:07:21.675Z,1.92
2019-03-12T17:09:52.368Z,2.40
2019-03-12T17:12:22.998Z,1.95
2019-03-12T17:14:53.641Z,1.82
2019-03-12T17:17:24.272Z,1.40
2019-03-12T17:19:54.899Z,1.50
2019-03-12T17:22:25.644Z,1.40
2019-03-12T17:24:56.287Z,1.40
2019-03-12T17:27:27.043Z,1.50
2019-03-12T17:29:57.616Z,1.70
2019-03-12T17:32:28.272Z,1.17
2019-03-12T17:34:58.917Z,1.30
2019-03-12T17:37:29.546Z,1.37
2019-03-12T17:40:00.397Z,1.10
2019-03-12T17:42:31.399Z,0.90
2019-03-12T17:45:02.042Z,0.80
2019-03-12T17:47:33.820Z,1.00
2019-03-12T17:50:04.924Z,0.90
2019-03-12T17:52:35.573Z,0.80
2019-03-12T17:55:07.563Z,1.10
2019-03-12T17:57:38.184Z,0.80
2019-03-12T18:00:14.864Z,1.02
2019-03-12T18:02:45.442Z,1.37
2019-03-12T18:05:16.109Z,1.00
2019-03-12T18:07:46.748Z,0.90
2019-03-12T18:10:17.392Z,0.85
2019-03-12T18:12:48.089Z,1.30
2019-03-12T18:15:19.516Z,1.10
2019-03-12T18:17:50.679Z,0.90
2019-03-12T18:20:21.282Z,0.90
2019-03-12T18:22:52.066Z,1.07
2019-03-12T18:25:24.572Z,1.00
2019-03-12T18:27:55.161Z,1.07
2019-03-12T18:30:25.888Z,0.90
2019-03-12T18:32:56.531Z,0.70
2019-03-12T18:35:27.211Z,0.90
2019-03-12T18:37:58.031Z,1.00
2019-03-12T18:40:28.658Z,0.60
2019-03-12T18:42:59.415Z,0.70
2019-03-12T18:45:30.218Z,0.93
2019-03-12T18:48:00.915Z,0.80
2019-03-12T18:50:31.658Z,1.10
2019-03-12T18:53:02.422Z,1.00
2019-03-12T18:56:21.396Z,1.00
2019-03-12T18:58:52.104Z,1.15
2019-03-12T19:01:23.688Z,0.98
2019-03-12T19:03:54.347Z,1.10
2019-03-12T19:06:25.040Z,0.90
2019-03-12T19:08:55.675Z,1.05
2019-03-12T19:11:26.267Z,1.15
2019-03-12T19:13:56.867Z,1.00
2019-03-12T19:16:27.557Z,1.00
2019-03-12T19:18:58.198Z,1.10
2019-03-12T19:21:28.821Z,1.32
2019-03-12T19:23:59.562Z,1.90
2019-03-12T19:26:31.127Z,1.82
2019-03-12T19:29:01.768Z,1.02
2019-03-12T19:31:57.768Z,0.72
2019-03-12T19:34:32.011Z,0.75
2019-03-12T19:37:02.584Z,0.53
2019-03-12T19:39:33.595Z,0.70
2019-03-12T19:42:03.718Z,0.80
2019-03-12T19:44:34.295Z,0.60
2019-03-12T19:47:05.015Z,0.53
2019-03-12T19:49:35.735Z,0.50
2019-03-12T19:52:06.339Z,0.40
2019-03-12T19:54:36.915Z,0.78
2019-03-12T19:57:07.555Z,0.53
2019-03-12T19:59:38.223Z,0.60
2019-03-12T20:02:15.912Z,0.47
2019-03-12T20:04:47.288Z,0.57
2019-03-12T20:07:13.554Z,0.60
2019-03-12T20:10:08.454Z,0.88
2019-03-12T20:13:38.869Z,0.82
2019-03-12T20:17:09.008Z,0.90
2019-03-12T20:20:34.866Z,0.72
2019-03-12T20:24:05.433Z,0.80
2019-03-12T20:26:52.841Z,0.70
2019-03-12T20:29:59.983Z,0.70
2019-03-12T20:33:10.723Z,0.80
2019-03-12T20:36:25.427Z,0.90
2019-03-12T20:39:32.810Z,0.70
2019-03-12T20:43:01.163Z,0.60
2019-03-12T20:46:09.458Z,0.75
2019-03-12T20:49:23.510Z,0.90
2019-03-12T20:52:22.392Z,1.17
2019-03-12T20:55:45.527Z,0.75
2019-03-12T20:58:47.876Z,0.60
2019-03-12T21:01:45.076Z,0.50
2019-03-12T21:04:54.896Z,0.60
2019-03-12T21:08:04.958Z,1.00
2019-03-12T21:11:05.431Z,0.70
2019-03-12T21:14:28.664Z,1.00
2019-03-12T21:17:33.364Z,0.95
2019-03-12T21:20:40.622Z,0.70
2019-03-12T21:23:25.548Z,0.60
2019-03-12T21:26:23.769Z,0.60
2019-03-12T21:29:22.723Z,0.80
2019-03-12T21:31:53.382Z,0.68
2019-03-12T21:34:23.990Z,0.70
2019-03-12T21:36:55.542Z,0.80
2019-03-12T21:39:27.101Z,0.80
2019-03-12T21:41:57.701Z,0.80
2019-03-12T21:44:28.429Z,0.70
2019-03-12T21:46:59.327Z,0.55
2019-03-12T21:49:29.926Z,0.57
2019-03-12T21:52:01.599Z,0.93
2019-03-12T21:54:32.279Z,0.60
2019-03-12T21:57:02.879Z,0.60
2019-03-12T21:59:33.563Z,0.70
2019-03-12T22:02:04.196Z,0.70
2019-03-12T22:04:34.851Z,0.70
2019-03-12T22:07:05.501Z,0.53
2019-03-12T22:09:36.195Z,0.40
2019-03-12T22:12:06.774Z,0.70
2019-03-12T22:14:37.416Z,0.60
2019-03-12T22:17:08.202Z,0.65
2019-03-12T22:19:38.825Z,0.60
2019-03-12T22:22:29.725Z,0.70
2019-03-12T22:24:59.770Z,0.60
2019-03-12T22:27:30.346Z,0.60
2019-03-12T22:30:00.915Z,0.57
2019-03-12T22:32:31.742Z,0.65
2019-03-12T22:35:02.435Z,0.50
2019-03-12T22:37:34.267Z,0.60
2019-03-12T22:40:05.005Z,0.60
2019-03-12T22:42:35.673Z,0.50
2019-03-12T22:45:06.309Z,0.53
2019-03-12T22:47:37.011Z,0.60
2019-03-12T22:50:07.868Z,0.70
2019-03-12T22:52:38.443Z,0.57
2019-03-12T22:55:09.106Z,0.60
2019-03-12T22:57:39.828Z,0.70
2019-03-12T23:00:31.760Z,0.60
2019-03-12T23:03:20.262Z,0.70
2019-03-12T23:06:09.123Z,0.70
2019-03-12T23:08:58.058Z,0.60
2019-03-12T23:11:30.281Z,0.60
2019-03-12T23:14:02.455Z,0.65
2019-03-12T23:16:34.145Z,0.57
2019-03-12T23:19:05.054Z,0.72
2019-03-12T23:21:35.671Z,0.50
2019-03-12T23:24:06.311Z,0.80
2019-03-12T23:26:37.951Z,0.42
2019-03-12T23:29:08.547Z,0.57
2019-03-12T23:31:39.421Z,0.40
2019-03-12T23:34:10.018Z,0.60
2019-03-12T23:36:40.603Z,0.70
2019-03-12T23:39:11.253Z,0.60
2019-03-12T23:41:42.058Z,0.70
2019-03-12T23:44:12.812Z,0.60
2019-03-12T23:46:43.422Z,0.50
2019-03-12T23:49:14.163Z,0.50
2019-03-12T23:51:44.751Z,0.60
2019-03-12T23:54:15.400Z,0.60
2019-03-12T23:56:46.118Z,0.70
2019-03-12T23:59:16.758Z,0.60
